createdAt,value
2019-05-18T00:00:43.492Z,15.60
2019-05-18T00:03:11.933Z,14.70
2019-05-18T00:05:40.406Z,14.43
2019-05-18T00:08:08.846Z,15.63
2019-05-18T00:10:37.304Z,15.07
2019-05-18T00:13:05.748Z,16.63
2019-05-18T00:15:34.201Z,16.40
2019-05-18T00:18:02.670Z,15.47
2019-05-18T00:20:31.181Z,16.53
2019-05-18T00:22:59.625Z,16.83
2019-05-18T00:25:28.082Z,16.07
2019-05-18T00:27:56.523Z,17.40
2019-05-18T00:30:24.974Z,17.63
2019-05-18T00:32:53.404Z,16.57
2019-05-18T00:35:21.867Z,17.77
2019-05-18T00:37:50.301Z,16.40
2019-05-18T00:40:18.753Z,18.13
2019-05-18T00:42:47.201Z,18.43
2019-05-18T00:45:15.803Z,17.93
2019-05-18T00:47:44.237Z,17.20
2019-05-18T00:50:12.908Z,17.90
2019-05-18T00:52:41.366Z,19.23
2019-05-18T00:55:09.959Z,18.07
2019-05-18T00:57:38.484Z,19.40
2019-05-18T01:00:08.200Z,18.80
2019-05-18T01:02:36.665Z,19.37
2019-05-18T01:05:06.235Z,18.70
2019-05-18T01:07:34.714Z,19.23
2019-05-18T01:10:03.413Z,19.13
2019-05-18T01:12:31.895Z,19.37
2019-05-18T01:15:00.335Z,19.23
2019-05-18T01:17:28.796Z,19.73
2019-05-18T01:19:57.319Z,19.80
2019-05-18T01:22:25.779Z,19.80
2019-05-18T01:24:54.226Z,19.73
2019-05-18T01:27:22.679Z,20.40
2019-05-18T01:29:51.120Z,19.50
2019-05-18T01:32:19.737Z,19.97
2019-05-18T01:34:48.245Z,20.20
2019-05-18T01:37:16.707Z,20.33
2019-05-18T01:39:45.129Z,21.87
2019-05-18T01:42:13.582Z,19.43
2019-05-18T01:44:42.029Z,20.63
2019-05-18T01:47:10.505Z,22.40
2019-05-18T01:49:39.029Z,21.33
2019-05-18T01:52:07.583Z,21.80
2019-05-18T01:54:36.013Z,21.43
2019-05-18T01:57:04.464Z,21.93
2019-05-18T01:59:32.899Z,21.33
2019-05-18T02:02:01.354Z,22.87
2019-05-18T02:04:29.804Z,22.93
2019-05-18T02:06:58.272Z,23.03
2019-05-18T02:09:26.704Z,21.73
2019-05-18T02:11:55.167Z,21.53
2019-05-18T02:14:23.600Z,22.53
2019-05-18T02:16:52.068Z,22.60
2019-05-18T02:19:20.507Z,22.97
2019-05-18T02:21:48.975Z,22.70
2019-05-18T02:24:17.423Z,23.43
2019-05-18T02:26:45.883Z,23.67
2019-05-18T02:29:14.320Z,23.30
2019-05-18T02:31:42.766Z,24.00
2019-05-18T02:34:11.205Z,24.07
2019-05-18T02:36:39.664Z,24.43
2019-05-18T02:39:08.865Z,23.77
2019-05-18T02:41:37.365Z,25.17
2019-05-18T02:44:06.047Z,23.90
2019-05-18T02:46:34.567Z,24.30
2019-05-18T02:49:03.022Z,24.57
2019-05-18T02:51:31.461Z,24.43
2019-05-18T02:53:59.914Z,24.90
2019-05-18T02:56:28.356Z,24.73
2019-05-18T02:58:56.890Z,23.80
2019-05-18T03:01:25.329Z,24.33
2019-05-18T03:03:53.778Z,24.40
2019-05-18T03:06:22.315Z,24.73
2019-05-18T03:08:50.820Z,24.80
2019-05-18T03:11:19.258Z,24.23
2019-05-18T03:13:47.718Z,24.37
2019-05-18T03:16:16.163Z,23.87
2019-05-18T03:18:44.619Z,25.83
2019-05-18T03:21:13.058Z,24.40
2019-05-18T03:23:41.591Z,25.30
2019-05-18T03:26:10.038Z,26.00
2019-05-18T03:28:38.521Z,25.30
2019-05-18T03:31:06.950Z,25.50
2019-05-18T03:33:35.411Z,26.23
2019-05-18T03:36:03.854Z,26.00
2019-05-18T03:38:32.322Z,26.40
2019-05-18T03:41:00.755Z,27.13
2019-05-18T03:43:29.223Z,26.20
2019-05-18T03:45:57.651Z,26.53
2019-05-18T03:48:26.110Z,26.67
2019-05-18T03:50:54.558Z,28.47
2019-05-18T03:53:23.014Z,26.80
2019-05-18T03:55:51.449Z,26.43
2019-05-18T03:58:19.907Z,26.20
2019-05-18T04:00:48.348Z,26.50
2019-05-18T04:03:16.793Z,26.60
2019-05-18T04:05:45.239Z,27.80
2019-05-18T04:08:13.718Z,26.20
2019-05-18T04:10:42.208Z,26.03
2019-05-18T04:13:10.659Z,26.60
2019-05-18T04:15:39.098Z,26.53
2019-05-18T04:18:07.565Z,26.30
2019-05-18T04:20:36.004Z,26.90
2019-05-18T04:23:04.612Z,25.70
2019-05-18T04:25:33.056Z,26.13
2019-05-18T04:28:01.539Z,27.27
2019-05-18T04:30:30.089Z,27.33
2019-05-18T04:32:58.517Z,25.93
2019-05-18T04:35:26.987Z,26.63
2019-05-18T04:37:55.435Z,26.23
2019-05-18T04:40:23.902Z,26.13
2019-05-18T04:42:52.347Z,26.60
2019-05-18T04:45:20.795Z,26.73
2019-05-18T04:47:49.248Z,26.27
2019-05-18T04:50:17.915Z,25.40
2019-05-18T04:52:46.421Z,25.67
2019-05-18T04:55:14.901Z,26.30
2019-05-18T04:57:43.396Z,26.90
2019-05-18T05:00:11.846Z,26.23
2019-05-18T05:02:40.288Z,27.17
2019-05-18T05:05:08.806Z,26.13
2019-05-18T05:07:37.249Z,26.27
2019-05-18T05:10:07.164Z,26.27
2019-05-18T05:12:35.709Z,25.50
2019-05-18T05:15:04.607Z,26.17
2019-05-18T05:17:33.051Z,26.90
2019-05-18T05:20:01.516Z,24.90
2019-05-18T05:22:29.982Z,25.93
2019-05-18T05:24:58.449Z,25.77
2019-05-18T05:27:26.870Z,25.27
2019-05-18T05:29:55.416Z,25.10
2019-05-18T05:32:23.873Z,24.60
2019-05-18T05:34:52.353Z,24.40
2019-05-18T05:37:20.781Z,25.43
2019-05-18T05:39:49.247Z,23.63
2019-05-18T05:42:17.846Z,24.37
2019-05-18T05:44:46.328Z,21.00
2019-05-18T05:47:14.819Z,21.77
2019-05-18T05:49:43.278Z,20.93
2019-05-18T05:52:11.733Z,20.83
2019-05-18T05:54:40.197Z,19.97
2019-05-18T05:57:08.649Z,18.90
2019-05-18T05:59:37.128Z,17.67
2019-05-18T06:02:05.567Z,19.50
2019-05-18T06:04:34.023Z,17.73
2019-05-18T06:07:02.455Z,18.00
2019-05-18T06:09:30.917Z,18.10
2019-05-18T06:11:59.355Z,17.37
2019-05-18T06:14:27.813Z,15.20
2019-05-18T06:16:56.259Z,14.83
2019-05-18T06:19:24.694Z,14.13
2019-05-18T06:21:53.214Z,14.13
2019-05-18T06:24:21.667Z,13.13
2019-05-18T06:26:50.131Z,12.20
2019-05-18T06:29:18.561Z,12.60
2019-05-18T06:31:47.012Z,12.97
2019-05-18T06:34:15.456Z,11.83
2019-05-18T06:36:43.913Z,12.30
2019-05-18T06:39:12.348Z,12.00
2019-05-18T06:41:40.811Z,12.40
2019-05-18T06:44:09.248Z,11.87
2019-05-18T06:46:37.713Z,12.17
2019-05-18T06:49:06.140Z,11.20
2019-05-18T06:51:34.618Z,12.17
2019-05-18T06:54:03.110Z,11.20
2019-05-18T06:56:33.647Z,10.63
2019-05-18T06:59:02.467Z,9.87
2019-05-18T07:01:31.025Z,9.57
2019-05-18T07:03:59.517Z,10.43
2019-05-18T07:06:28.032Z,9.50
2019-05-18T07:08:56.529Z,9.70
2019-05-18T07:11:25.057Z,10.43
2019-05-18T07:13:53.493Z,9.70
2019-05-18T07:16:21.972Z,9.80
2019-05-18T07:18:50.398Z,9.47
2019-05-18T07:21:22.267Z,10.00
2019-05-18T07:23:49.034Z,10.20
2019-05-18T07:26:17.498Z,9.90
2019-05-18T07:28:45.944Z,9.70
2019-05-18T07:31:14.382Z,9.17
2019-05-18T07:33:42.831Z,9.17
2019-05-18T07:36:11.291Z,8.63
2019-05-18T07:38:39.727Z,8.07
2019-05-18T07:41:08.173Z,8.43
2019-05-18T07:43:36.636Z,7.73
2019-05-18T07:46:05.077Z,8.30
2019-05-18T07:48:33.517Z,7.57
2019-05-18T07:51:01.985Z,7.13
2019-05-18T07:53:30.477Z,7.30
2019-05-18T07:55:58.930Z,7.47
2019-05-18T07:58:27.370Z,7.23
2019-05-18T08:00:55.825Z,6.83
2019-05-18T08:03:24.332Z,7.90
2019-05-18T08:05:52.789Z,8.07
2019-05-18T08:08:21.228Z,7.60
2019-05-18T08:10:49.698Z,7.50
2019-05-18T08:13:18.169Z,6.87
2019-05-18T08:15:46.658Z,7.90
2019-05-18T08:18:15.102Z,6.97
2019-05-18T08:20:43.538Z,8.07
2019-05-18T08:23:11.980Z,8.07
2019-05-18T08:25:40.425Z,7.60
2019-05-18T08:28:08.873Z,7.50
2019-05-18T08:30:37.314Z,7.50
2019-05-18T08:33:05.756Z,6.90
2019-05-18T08:35:34.185Z,6.83
2019-05-18T08:38:02.686Z,7.50
2019-05-18T08:40:31.150Z,7.47
2019-05-18T08:42:59.605Z,7.57
2019-05-18T08:45:28.031Z,6.73
2019-05-18T08:47:56.496Z,7.63
2019-05-18T08:50:24.997Z,6.53
2019-05-18T08:52:53.458Z,7.27
2019-05-18T08:55:21.885Z,6.30
2019-05-18T08:57:50.337Z,7.33
2019-05-18T09:00:20.711Z,7.13
2019-05-18T09:02:49.157Z,7.63
2019-05-18T09:05:17.649Z,7.50
2019-05-18T09:07:46.105Z,7.10
2019-05-18T09:10:14.924Z,7.57
2019-05-18T09:12:43.419Z,7.90
2019-05-18T09:15:13.299Z,7.20
2019-05-18T09:17:41.749Z,7.40
2019-05-18T09:20:10.730Z,7.23
2019-05-18T09:22:39.166Z,7.77
2019-05-18T09:25:08.094Z,7.00
2019-05-18T09:27:36.544Z,7.27
2019-05-18T09:30:07.078Z,5.90
2019-05-18T09:32:35.527Z,6.50
2019-05-18T09:35:07.870Z,6.70
2019-05-18T09:37:36.318Z,6.53
2019-05-18T09:40:08.412Z,5.63
2019-05-18T09:42:36.864Z,6.20
2019-05-18T09:45:07.008Z,5.43
2019-05-18T09:47:35.630Z,5.47
2019-05-18T09:50:05.025Z,5.80
2019-05-18T09:52:45.029Z,6.23
2019-05-18T09:55:05.427Z,6.07
2019-05-18T09:57:33.926Z,5.63
2019-05-18T10:00:02.399Z,6.20
2019-05-18T10:02:30.864Z,5.67
2019-05-18T10:04:59.291Z,5.83
2019-05-18T10:07:27.747Z,5.90
2019-05-18T10:09:56.177Z,6.30
2019-05-18T10:12:24.935Z,5.87
2019-05-18T10:14:53.471Z,5.90
2019-05-18T10:17:21.901Z,6.00
2019-05-18T10:19:50.357Z,5.97
2019-05-18T10:22:18.792Z,5.63
2019-05-18T10:24:47.996Z,5.50
2019-05-18T10:27:16.431Z,5.90
2019-05-18T10:29:46.719Z,6.40
2019-05-18T10:32:15.046Z,5.47
2019-05-18T10:34:43.502Z,5.70
2019-05-18T10:37:11.937Z,6.47
2019-05-18T10:39:40.384Z,6.03
2019-05-18T10:42:08.893Z,6.33
2019-05-18T10:44:37.356Z,6.20
2019-05-18T10:47:05.831Z,6.63
2019-05-18T10:49:34.281Z,6.37
2019-05-18T10:52:02.790Z,6.47
2019-05-18T10:54:31.323Z,6.30
2019-05-18T10:56:59.805Z,6.40
2019-05-18T10:59:28.254Z,7.20
2019-05-18T11:01:56.685Z,7.53
2019-05-18T11:04:25.135Z,7.40
2019-05-18T11:06:53.584Z,6.77
2019-05-18T11:09:22.091Z,6.53
2019-05-18T11:11:50.533Z,6.77
2019-05-18T11:14:19.107Z,6.93
2019-05-18T11:16:47.545Z,6.20
2019-05-18T11:19:16.001Z,7.00
2019-05-18T11:21:44.437Z,7.83
2019-05-18T11:24:12.888Z,7.07
2019-05-18T11:26:41.318Z,6.90
2019-05-18T11:29:09.783Z,6.47
2019-05-18T11:31:38.212Z,5.87
2019-05-18T11:34:06.749Z,5.50
2019-05-18T11:36:35.177Z,5.80
2019-05-18T11:39:05.110Z,5.37
2019-05-18T11:41:33.541Z,5.77
2019-05-18T11:44:02.066Z,5.60
2019-05-18T11:46:30.497Z,5.50
2019-05-18T11:48:58.938Z,6.17
2019-05-18T11:51:27.393Z,5.93
2019-05-18T11:53:58.445Z,5.83
2019-05-18T11:56:26.002Z,4.93
2019-05-18T11:58:54.454Z,5.03
2019-05-18T12:01:22.899Z,5.07
2019-05-18T12:03:51.346Z,4.97
2019-05-18T12:06:19.856Z,4.23
2019-05-18T12:08:48.323Z,4.47
2019-05-18T12:11:16.777Z,3.97
2019-05-18T12:13:45.226Z,4.20
2019-05-18T12:16:16.918Z,4.07
2019-05-18T12:18:43.834Z,4.17
2019-05-18T12:21:12.355Z,4.00
2019-05-18T12:23:40.793Z,4.00
2019-05-18T12:26:09.243Z,3.40
2019-05-18T12:28:37.671Z,3.60
2019-05-18T12:31:06.126Z,3.60
2019-05-18T12:33:34.617Z,3.93
2019-05-18T12:36:03.267Z,3.57
2019-05-18T12:38:31.693Z,3.43
2019-05-18T12:41:00.146Z,3.90
2019-05-18T12:43:28.572Z,3.67
2019-05-18T12:45:57.047Z,3.30
2019-05-18T12:48:25.533Z,3.47
2019-05-18T12:50:53.985Z,3.60
2019-05-18T12:53:22.423Z,3.57
2019-05-18T12:55:50.891Z,3.77
2019-05-18T12:58:19.357Z,3.37
2019-05-18T13:00:47.823Z,4.00
2019-05-18T13:03:16.323Z,3.60
2019-05-18T13:05:44.770Z,4.20
2019-05-18T13:08:13.208Z,3.80
2019-05-18T13:10:41.662Z,3.50
2019-05-18T13:13:10.148Z,3.90
2019-05-18T13:15:38.626Z,3.30
2019-05-18T13:18:07.122Z,3.67
2019-05-18T13:20:35.569Z,3.43
2019-05-18T13:23:03.994Z,3.40
2019-05-18T13:25:32.441Z,3.67
2019-05-18T13:28:00.868Z,3.37
2019-05-18T13:30:29.457Z,3.23
2019-05-18T13:32:57.904Z,3.67
2019-05-18T13:35:26.346Z,3.37
2019-05-18T13:37:54.788Z,3.80
2019-05-18T13:40:23.458Z,3.47
2019-05-18T13:42:51.919Z,3.63
2019-05-18T13:45:21.381Z,3.83
2019-05-18T13:47:50.383Z,3.63
2019-05-18T13:50:18.957Z,3.67
2019-05-18T13:52:47.402Z,3.40
2019-05-18T13:55:15.969Z,2.93
2019-05-18T13:57:44.423Z,2.77
2019-05-18T14:00:13.211Z,2.40
2019-05-18T14:02:41.722Z,2.30
2019-05-18T14:05:10.394Z,2.13
2019-05-18T14:07:38.853Z,2.40
2019-05-18T14:10:08.243Z,2.33
2019-05-18T14:12:36.770Z,2.27
2019-05-18T14:15:06.917Z,2.20
2019-05-18T14:17:35.373Z,2.50
2019-05-18T14:20:04.643Z,2.37
2019-05-18T14:22:33.085Z,2.37
2019-05-18T14:25:10.532Z,2.30
2019-05-18T14:27:32.061Z,3.10
2019-05-18T14:30:00.498Z,3.40
2019-05-18T14:32:28.962Z,3.30
2019-05-18T14:34:57.387Z,3.13
2019-05-18T14:37:25.833Z,3.10
2019-05-18T14:39:54.261Z,2.70
2019-05-18T14:42:22.720Z,2.23
2019-05-18T14:44:51.153Z,2.20
2019-05-18T14:47:19.603Z,2.10
2019-05-18T14:49:48.037Z,2.47
2019-05-18T14:52:16.490Z,2.30
2019-05-18T14:54:44.924Z,2.53
2019-05-18T14:57:13.381Z,2.40
2019-05-18T14:59:41.803Z,2.87
2019-05-18T15:02:10.259Z,2.90
2019-05-18T15:04:38.733Z,3.00
2019-05-18T15:07:07.216Z,2.90
2019-05-18T15:09:35.654Z,3.07
2019-05-18T15:12:04.173Z,2.57
2019-05-18T15:14:32.596Z,2.67
2019-05-18T15:17:01.188Z,2.40
2019-05-18T15:19:29.706Z,2.00
2019-05-18T15:21:58.129Z,1.97
2019-05-18T15:24:26.570Z,2.10
2019-05-18T15:26:55.033Z,2.67
2019-05-18T15:29:23.514Z,2.50
2019-05-18T15:31:51.995Z,2.40
2019-05-18T15:34:20.461Z,2.33
2019-05-18T15:36:48.895Z,2.40
2019-05-18T15:39:17.356Z,2.53
2019-05-18T15:41:45.785Z,2.30
2019-05-18T15:44:14.241Z,2.50
2019-05-18T15:46:42.675Z,2.50
2019-05-18T15:49:11.149Z,2.23
2019-05-18T15:51:39.642Z,2.40
2019-05-18T15:54:08.095Z,2.43
2019-05-18T15:56:36.530Z,2.30
2019-05-18T15:59:05.044Z,2.50
2019-05-18T16:01:33.605Z,2.30
2019-05-18T16:04:02.103Z,2.30
2019-05-18T16:06:30.562Z,2.60
2019-05-18T16:08:59.069Z,2.37
2019-05-18T16:11:27.498Z,2.83
2019-05-18T16:13:55.971Z,2.37
2019-05-18T16:16:24.476Z,2.70
2019-05-18T16:18:52.931Z,2.60
2019-05-18T16:21:21.368Z,2.40
2019-05-18T16:23:49.821Z,2.30
2019-05-18T16:26:21.528Z,2.40
2019-05-18T16:28:48.413Z,2.53
2019-05-18T16:31:16.870Z,2.63
2019-05-18T16:33:45.310Z,2.53
2019-05-18T16:36:13.735Z,2.40
2019-05-18T16:38:42.207Z,2.40
2019-05-18T16:41:10.634Z,2.53
2019-05-18T16:43:39.089Z,2.40
2019-05-18T16:46:07.515Z,2.83
2019-05-18T16:48:39.300Z,2.67
2019-05-18T16:51:06.119Z,3.37
2019-05-18T16:53:34.574Z,2.87
2019-05-18T16:56:03.001Z,3.00
2019-05-18T16:58:31.449Z,2.90
2019-05-18T17:00:59.919Z,2.60
2019-05-18T17:03:28.367Z,2.30
2019-05-18T17:05:56.797Z,2.83
2019-05-18T17:08:25.243Z,2.90
2019-05-18T17:10:53.698Z,3.10
2019-05-18T17:13:22.134Z,2.77
2019-05-18T17:15:50.587Z,3.20
2019-05-18T17:18:19.014Z,2.70
2019-05-18T17:20:47.465Z,2.77
2019-05-18T17:23:15.895Z,2.20
2019-05-18T17:25:44.355Z,2.90
2019-05-18T17:28:12.865Z,2.63
2019-05-18T17:30:42.797Z,2.50
2019-05-18T17:33:11.440Z,2.70
2019-05-18T17:35:39.886Z,3.07
2019-05-18T17:38:08.336Z,3.20
2019-05-18T17:40:36.790Z,2.90
2019-05-18T17:43:05.234Z,2.67
2019-05-18T17:45:33.713Z,2.63
2019-05-18T17:48:02.203Z,2.40
2019-05-18T17:50:30.665Z,2.67
2019-05-18T17:52:59.095Z,2.60
2019-05-18T17:55:27.538Z,2.83
2019-05-18T17:57:55.967Z,2.87
2019-05-18T18:00:24.519Z,2.60
2019-05-18T18:02:52.993Z,3.40
2019-05-18T18:05:21.461Z,2.97
2019-05-18T18:07:49.898Z,2.77
2019-05-18T18:10:18.508Z,2.60
2019-05-18T18:12:47.017Z,2.60
2019-05-18T18:15:15.807Z,3.20
2019-05-18T18:17:44.231Z,3.50
2019-05-18T18:20:13.226Z,3.40
2019-05-18T18:22:41.666Z,2.87
2019-05-18T18:25:10.367Z,2.70
2019-05-18T18:27:38.794Z,2.80
2019-05-18T18:30:11.402Z,3.10
2019-05-18T18:32:39.825Z,4.57
2019-05-18T18:35:08.437Z,5.53
2019-05-18T18:37:36.879Z,5.40
2019-05-18T18:40:08.271Z,5.47
2019-05-18T18:42:36.728Z,5.97
2019-05-18T18:45:09.223Z,5.17
2019-05-18T18:47:37.674Z,4.40
2019-05-18T18:50:07.171Z,3.53
2019-05-18T18:52:35.615Z,3.67
2019-05-18T18:55:04.829Z,3.60
2019-05-18T18:57:41.156Z,4.10
2019-05-18T19:00:04.257Z,4.00
2019-05-18T19:02:32.706Z,4.30
2019-05-18T19:05:01.246Z,3.53
2019-05-18T19:07:29.739Z,3.87
2019-05-18T19:09:58.158Z,4.33
2019-05-18T19:12:26.606Z,4.50
2019-05-18T19:14:55.045Z,4.20
2019-05-18T19:17:23.580Z,4.77
2019-05-18T19:19:52.011Z,5.20
2019-05-18T19:22:20.461Z,5.57
2019-05-18T19:24:48.896Z,5.13
2019-05-18T19:27:17.345Z,4.67
2019-05-18T19:29:45.786Z,4.60
2019-05-18T19:32:14.221Z,4.90
2019-05-18T19:34:42.653Z,6.30
2019-05-18T19:37:11.114Z,6.27
2019-05-18T19:39:39.610Z,7.17
2019-05-18T19:42:08.052Z,7.03
2019-05-18T19:44:36.478Z,6.77
2019-05-18T19:47:04.930Z,6.93
2019-05-18T19:49:33.386Z,8.30
2019-05-18T19:52:01.825Z,9.03
2019-05-18T19:54:30.266Z,9.07
2019-05-18T19:56:58.810Z,9.20
2019-05-18T19:59:27.335Z,8.97
2019-05-18T20:01:55.801Z,9.33
2019-05-18T20:04:24.231Z,9.37
2019-05-18T20:06:52.699Z,9.03
2019-05-18T20:09:21.144Z,8.97
2019-05-18T20:11:49.667Z,9.40
2019-05-18T20:14:18.099Z,9.60
2019-05-18T20:16:46.596Z,9.17
2019-05-18T20:19:15.085Z,8.60
2019-05-18T20:21:43.528Z,8.97
2019-05-18T20:24:11.964Z,9.60
2019-05-18T20:26:40.410Z,9.23
2019-05-18T20:29:08.830Z,8.63
2019-05-18T20:31:37.281Z,9.07
2019-05-18T20:34:05.723Z,8.47
2019-05-18T20:36:34.184Z,8.07
2019-05-18T20:39:02.627Z,8.27
2019-05-18T20:41:31.076Z,7.57
2019-05-18T20:43:59.514Z,8.93
2019-05-18T20:46:27.968Z,9.63
2019-05-18T20:48:56.400Z,9.03
2019-05-18T20:51:24.850Z,9.13
2019-05-18T20:53:53.311Z,8.77
2019-05-18T20:56:21.810Z,8.93
2019-05-18T20:58:50.263Z,9.10
2019-05-18T21:01:18.759Z,8.17
2019-05-18T21:03:47.272Z,8.63
2019-05-18T21:06:15.719Z,8.33
2019-05-18T21:08:44.175Z,9.63
2019-05-18T21:11:12.624Z,9.07
2019-05-18T21:13:41.083Z,8.80
2019-05-18T21:16:09.581Z,9.70
2019-05-18T21:18:38.036Z,9.63
2019-05-18T21:21:06.474Z,9.53
2019-05-18T21:23:34.923Z,8.87
2019-05-18T21:26:03.346Z,8.77
2019-05-18T21:28:31.793Z,9.20
2019-05-18T21:31:00.237Z,8.47
2019-05-18T21:33:28.697Z,8.67
2019-05-18T21:35:57.130Z,9.20
2019-05-18T21:38:25.587Z,8.90
2019-05-18T21:40:54.031Z,9.03
2019-05-18T21:43:22.547Z,10.33
2019-05-18T21:45:51.023Z,10.47
2019-05-18T21:48:19.520Z,9.90
2019-05-18T21:50:47.962Z,10.67
2019-05-18T21:53:16.431Z,9.90
2019-05-18T21:55:44.863Z,9.93
2019-05-18T21:58:13.315Z,10.17
2019-05-18T22:00:42.118Z,9.40
2019-05-18T22:03:10.646Z,9.50
2019-05-18T22:05:39.082Z,9.70
2019-05-18T22:08:07.529Z,9.87
2019-05-18T22:10:35.969Z,10.03
2019-05-18T22:13:04.421Z,10.23
2019-05-18T22:15:32.871Z,10.20
2019-05-18T22:18:04.020Z,10.10
2019-05-18T22:20:34.828Z,9.23
2019-05-18T22:23:03.690Z,10.33
2019-05-18T22:25:32.989Z,9.60
2019-05-18T22:28:01.562Z,9.83
2019-05-18T22:30:30.001Z,9.87
2019-05-18T22:32:58.445Z,9.80
2019-05-18T22:35:26.892Z,11.40
2019-05-18T22:37:55.385Z,10.20
2019-05-18T22:40:23.887Z,10.00
2019-05-18T22:42:52.394Z,10.50
2019-05-18T22:45:20.879Z,11.10
2019-05-18T22:47:49.381Z,10.40
2019-05-18T22:50:18.102Z,10.70
2019-05-18T22:52:46.540Z,9.97
2019-05-18T22:55:15.168Z,10.20
2019-05-18T22:57:43.621Z,10.47
2019-05-18T23:00:12.934Z,9.87
2019-05-18T23:02:41.448Z,10.67
2019-05-18T23:05:10.048Z,10.90
2019-05-18T23:07:38.481Z,10.63
2019-05-18T23:10:07.283Z,10.37
2019-05-18T23:12:35.808Z,10.20
2019-05-18T23:15:06.693Z,10.53
2019-05-18T23:17:35.154Z,11.47
2019-05-18T23:20:03.957Z,11.10
2019-05-18T23:22:32.396Z,10.93
2019-05-18T23:25:00.858Z,11.23
2019-05-18T23:27:29.302Z,11.40
2019-05-18T23:29:57.772Z,12.00
2019-05-18T23:32:26.204Z,10.87
2019-05-18T23:34:54.730Z,11.83
2019-05-18T23:37:23.198Z,11.97
2019-05-18T23:39:51.663Z,13.77
2019-05-18T23:42:20.104Z,12.77
2019-05-18T23:44:48.554Z,13.43
2019-05-18T23:47:16.996Z,13.77
2019-05-18T23:49:45.445Z,14.87
2019-05-18T23:52:13.890Z,14.37
2019-05-18T23:54:42.350Z,13.90
2019-05-18T23:57:10.796Z,13.90
2019-05-18T23:59:39.247Z,13.70
